sensor_id;sensor_type;location;lat;lon;timestamp;temperature;humidity
33739;DHT22;20063;51.730;11.110;2022-12-29T00:01:14;8.60;99.90
33739;DHT22;20063;51.730;11.110;2022-12-29T00:03:39;8.60;99.90
33739;DHT22;20063;51.730;11.110;2022-12-29T00:06:05;8.50;99.90
33739;DHT22;20063;51.730;11.110;2022-12-29T00:08:31;8.60;99.90
33739;DHT22;20063;51.730;11.110;2022-12-29T00:11:31;8.60;99.90
33739;DHT22;20063;51.730;11.110;2022-12-29T00:13:57;8.60;99.90
33739;DHT22;20063;51.730;11.110;2022-12-29T00:16:43;8.60;99.90
33739;DHT22;20063;51.730;11.110;2022-12-29T00:19:09;8.60;99.90
33739;DHT22;20063;51.730;11.110;2022-12-29T00:21:53;8.70;99.90
33739;DHT22;20063;51.730;11.110;2022-12-29T00:24:39;8.70;99.90
33739;DHT22;20063;51.730;11.110;2022-12-29T00:27:20;8.70;99.90
33739;DHT22;20063;51.730;11.110;2022-12-29T00:30:10;8.70;99.90
33739;DHT22;20063;51.730;11.110;2022-12-29T00:32:54;8.70;99.90
33739;DHT22;20063;51.730;11.110;2022-12-29T00:35:44;8.80;99.90
33739;DHT22;20063;51.730;11.110;2022-12-29T00:38:10;8.90;99.90
33739;DHT22;20063;51.730;11.110;2022-12-29T00:40:55;8.90;99.90
33739;DHT22;20063;51.730;11.110;2022-12-29T00:43:39;8.80;99.90
33739;DHT22;20063;51.730;11.110;2022-12-29T00:46:24;8.80;99.90
33739;DHT22;20063;51.730;11.110;2022-12-29T00:48:49;8.80;99.90
33739;DHT22;20063;51.730;11.110;2022-12-29T00:51:33;8.80;99.90
33739;DHT22;20063;51.730;11.110;2022-12-29T00:53:59;8.90;99.90
33739;DHT22;20063;51.730;11.110;2022-12-29T00:56:24;8.90;99.90
33739;DHT22;20063;51.730;11.110;2022-12-29T00:58:50;8.90;99.90
33739;DHT22;20063;51.730;11.110;2022-12-29T01:01:16;9.00;99.90
33739;DHT22;20063;51.730;11.110;2022-12-29T01:03:42;9.00;99.90
33739;DHT22;20063;51.730;11.110;2022-12-29T01:06:09;8.90;99.90
33739;DHT22;20063;51.730;11.110;2022-12-29T01:08:36;8.90;99.90
33739;DHT22;20063;51.730;11.110;2022-12-29T01:11:10;8.90;99.90
33739;DHT22;20063;51.730;11.110;2022-12-29T01:13:36;8.90;99.90
33739;DHT22;20063;51.730;11.110;2022-12-29T01:16:04;8.90;99.90
33739;DHT22;20063;51.730;11.110;2022-12-29T01:18:30;8.90;99.90
33739;DHT22;20063;51.730;11.110;2022-12-29T01:21:04;8.90;99.90
33739;DHT22;20063;51.730;11.110;2022-12-29T01:23:31;9.00;99.90
33739;DHT22;20063;51.730;11.110;2022-12-29T01:25:57;9.00;99.90
33739;DHT22;20063;51.730;11.110;2022-12-29T01:28:23;9.10;99.90
33739;DHT22;20063;51.730;11.110;2022-12-29T01:30:49;9.10;99.90
33739;DHT22;20063;51.730;11.110;2022-12-29T01:33:14;9.30;99.90
33739;DHT22;20063;51.730;11.110;2022-12-29T01:35:40;9.30;99.90
33739;DHT22;20063;51.730;11.110;2022-12-29T01:38:06;9.40;99.90
33739;DHT22;20063;51.730;11.110;2022-12-29T01:40:33;9.40;99.90
33739;DHT22;20063;51.730;11.110;2022-12-29T01:42:58;9.30;99.90
33739;DHT22;20063;51.730;11.110;2022-12-29T01:45:24;9.30;99.90
33739;DHT22;20063;51.730;11.110;2022-12-29T01:47:58;9.20;99.90
33739;DHT22;20063;51.730;11.110;2022-12-29T01:50:33;9.20;99.90
33739;DHT22;20063;51.730;11.110;2022-12-29T01:53:06;9.20;99.90
33739;DHT22;20063;51.730;11.110;2022-12-29T01:55:43;9.20;99.90
33739;DHT22;20063;51.730;11.110;2022-12-29T01:58:11;9.20;99.90
33739;DHT22;20063;51.730;11.110;2022-12-29T02:00:38;9.20;99.90
33739;DHT22;20063;51.730;11.110;2022-12-29T02:03:05;9.20;99.90
33739;DHT22;20063;51.730;11.110;2022-12-29T02:08:04;9.20;99.90
33739;DHT22;20063;51.730;11.110;2022-12-29T02:10:31;9.10;99.90
33739;DHT22;20063;51.730;11.110;2022-12-29T02:12:58;9.10;99.90
33739;DHT22;20063;51.730;11.110;2022-12-29T02:15:47;9.10;99.90
33739;DHT22;20063;51.730;11.110;2022-12-29T02:26:59;9.20;99.90
33739;DHT22;20063;51.730;11.110;2022-12-29T02:35:37;9.20;99.90
33739;DHT22;20063;51.730;11.110;2022-12-29T02:41:31;9.20;99.90
33739;DHT22;20063;51.730;11.110;2022-12-29T02:44:31;9.20;99.90
33739;DHT22;20063;51.730;11.110;2022-12-29T02:50:32;9.20;99.90
33739;DHT22;20063;51.730;11.110;2022-12-29T02:53:11;9.20;99.90
33739;DHT22;20063;51.730;11.110;2022-12-29T02:55:38;9.20;99.90
33739;DHT22;20063;51.730;11.110;2022-12-29T02:58:22;9.30;99.90
33739;DHT22;20063;51.730;11.110;2022-12-29T03:09:46;9.40;99.90
33739;DHT22;20063;51.730;11.110;2022-12-29T03:15:14;9.40;99.90
33739;DHT22;20063;51.730;11.110;2022-12-29T03:18:06;9.40;99.90
33739;DHT22;20063;51.730;11.110;2022-12-29T03:21:01;9.40;99.90
33739;DHT22;20063;51.730;11.110;2022-12-29T03:23:29;9.40;99.90
33739;DHT22;20063;51.730;11.110;2022-12-29T03:25:58;9.40;99.90
33739;DHT22;20063;51.730;11.110;2022-12-29T03:28:30;9.40;99.90
33739;DHT22;20063;51.730;11.110;2022-12-29T03:30:58;9.40;99.90
33739;DHT22;20063;51.730;11.110;2022-12-29T03:33:27;9.40;99.90
33739;DHT22;20063;51.730;11.110;2022-12-29T03:35:58;9.40;99.90
33739;DHT22;20063;51.730;11.110;2022-12-29T03:38:30;9.40;99.90
33739;DHT22;20063;51.730;11.110;2022-12-29T03:41:01;9.40;99.90
33739;DHT22;20063;51.730;11.110;2022-12-29T03:43:29;9.50;99.90
33739;DHT22;20063;51.730;11.110;2022-12-29T03:45:55;9.60;99.90
33739;DHT22;20063;51.730;11.110;2022-12-29T03:48:20;9.70;99.90
33739;DHT22;20063;51.730;11.110;2022-12-29T03:50:46;9.80;99.90
33739;DHT22;20063;51.730;11.110;2022-12-29T03:53:12;9.80;99.90
33739;DHT22;20063;51.730;11.110;2022-12-29T03:55:37;9.80;99.90
33739;DHT22;20063;51.730;11.110;2022-12-29T03:58:03;9.80;99.90
33739;DHT22;20063;51.730;11.110;2022-12-29T04:00:28;9.80;99.90
33739;DHT22;20063;51.730;11.110;2022-12-29T04:02:54;9.80;99.90
33739;DHT22;20063;51.730;11.110;2022-12-29T04:05:20;9.80;99.90
33739;DHT22;20063;51.730;11.110;2022-12-29T04:07:46;9.70;99.90
33739;DHT22;20063;51.730;11.110;2022-12-29T04:10:11;9.70;99.90
33739;DHT22;20063;51.730;11.110;2022-12-29T04:12:37;9.60;99.90
33739;DHT22;20063;51.730;11.110;2022-12-29T04:15:03;9.70;99.90
33739;DHT22;20063;51.730;11.110;2022-12-29T04:17:28;9.70;99.90
33739;DHT22;20063;51.730;11.110;2022-12-29T04:19:54;9.70;99.90
33739;DHT22;20063;51.730;11.110;2022-12-29T04:22:39;9.70;99.90
33739;DHT22;20063;51.730;11.110;2022-12-29T04:25:05;9.70;99.90
33739;DHT22;20063;51.730;11.110;2022-12-29T04:27:31;9.60;99.90
33739;DHT22;20063;51.730;11.110;2022-12-29T04:29:56;9.60;99.90
33739;DHT22;20063;51.730;11.110;2022-12-29T04:32:22;9.70;99.90
33739;DHT22;20063;51.730;11.110;2022-12-29T04:34:48;9.70;99.90
33739;DHT22;20063;51.730;11.110;2022-12-29T04:37:14;9.80;99.90
33739;DHT22;20063;51.730;11.110;2022-12-29T04:39:39;9.80;99.90
33739;DHT22;20063;51.730;11.110;2022-12-29T04:42:05;9.80;99.90
33739;DHT22;20063;51.730;11.110;2022-12-29T04:44:30;9.80;99.90
33739;DHT22;20063;51.730;11.110;2022-12-29T04:46:56;9.80;99.90
33739;DHT22;20063;51.730;11.110;2022-12-29T04:49:21;9.80;99.90
33739;DHT22;20063;51.730;11.110;2022-12-29T04:51:50;9.70;99.90
33739;DHT22;20063;51.730;11.110;2022-12-29T04:54:15;9.80;99.90
33739;DHT22;20063;51.730;11.110;2022-12-29T04:56:41;9.80;99.90
33739;DHT22;20063;51.730;11.110;2022-12-29T04:59:07;9.70;99.90
33739;DHT22;20063;51.730;11.110;2022-12-29T05:01:32;9.70;99.90
33739;DHT22;20063;51.730;11.110;2022-12-29T05:04:01;9.70;99.90
33739;DHT22;20063;51.730;11.110;2022-12-29T05:06:26;9.70;99.90
33739;DHT22;20063;51.730;11.110;2022-12-29T05:08:52;9.70;99.90
33739;DHT22;20063;51.730;11.110;2022-12-29T05:11:18;9.60;99.90
33739;DHT22;20063;51.730;11.110;2022-12-29T05:13:46;9.60;99.90
33739;DHT22;20063;51.730;11.110;2022-12-29T05:16:15;9.60;99.90
33739;DHT22;20063;51.730;11.110;2022-12-29T05:18:40;9.60;99.90
33739;DHT22;20063;51.730;11.110;2022-12-29T05:21:06;9.70;99.90
33739;DHT22;20063;51.730;11.110;2022-12-29T05:23:31;9.70;99.90
33739;DHT22;20063;51.730;11.110;2022-12-29T05:25:57;9.70;99.90
33739;DHT22;20063;51.730;11.110;2022-12-29T05:28:26;9.70;99.90
33739;DHT22;20063;51.730;11.110;2022-12-29T05:30:51;9.70;99.90
33739;DHT22;20063;51.730;11.110;2022-12-29T05:33:20;9.70;99.90
33739;DHT22;20063;51.730;11.110;2022-12-29T05:35:46;9.80;99.90
33739;DHT22;20063;51.730;11.110;2022-12-29T05:38:12;9.80;99.90
33739;DHT22;20063;51.730;11.110;2022-12-29T05:40:37;9.80;99.90
33739;DHT22;20063;51.730;11.110;2022-12-29T05:43:03;9.80;99.90
33739;DHT22;20063;51.730;11.110;2022-12-29T05:45:28;9.80;99.90
33739;DHT22;20063;51.730;11.110;2022-12-29T05:47:54;9.80;99.90
33739;DHT22;20063;51.730;11.110;2022-12-29T05:50:20;9.80;99.90
33739;DHT22;20063;51.730;11.110;2022-12-29T05:52:45;9.90;99.90
33739;DHT22;20063;51.730;11.110;2022-12-29T05:55:12;9.90;99.90
33739;DHT22;20063;51.730;11.110;2022-12-29T05:57:38;9.90;99.90
33739;DHT22;20063;51.730;11.110;2022-12-29T06:00:04;9.90;99.90
33739;DHT22;20063;51.730;11.110;2022-12-29T06:02:30;9.90;99.90
33739;DHT22;20063;51.730;11.110;2022-12-29T06:04:56;9.90;99.90
33739;DHT22;20063;51.730;11.110;2022-12-29T06:07:21;10.00;99.90
33739;DHT22;20063;51.730;11.110;2022-12-29T06:09:47;10.00;99.90
33739;DHT22;20063;51.730;11.110;2022-12-29T06:12:12;10.00;99.90
33739;DHT22;20063;51.730;11.110;2022-12-29T06:14:38;10.10;99.90
33739;DHT22;20063;51.730;11.110;2022-12-29T06:17:04;10.10;99.90
33739;DHT22;20063;51.730;11.110;2022-12-29T06:19:29;10.10;99.90
33739;DHT22;20063;51.730;11.110;2022-12-29T06:21:55;10.10;99.90
33739;DHT22;20063;51.730;11.110;2022-12-29T06:24:21;10.20;99.90
33739;DHT22;20063;51.730;11.110;2022-12-29T06:26:47;10.20;99.90
33739;DHT22;20063;51.730;11.110;2022-12-29T06:29:12;10.10;99.90
33739;DHT22;20063;51.730;11.110;2022-12-29T06:31:42;10.20;99.90
33739;DHT22;20063;51.730;11.110;2022-12-29T06:34:08;10.20;99.90
33739;DHT22;20063;51.730;11.110;2022-12-29T06:36:34;10.20;99.90
33739;DHT22;20063;51.730;11.110;2022-12-29T06:39:00;10.20;99.90
33739;DHT22;20063;51.730;11.110;2022-12-29T06:41:25;10.30;99.90
33739;DHT22;20063;51.730;11.110;2022-12-29T06:43:51;10.30;99.90
33739;DHT22;20063;51.730;11.110;2022-12-29T06:46:16;10.30;99.90
33739;DHT22;20063;51.730;11.110;2022-12-29T06:48:42;10.30;99.90
33739;DHT22;20063;51.730;11.110;2022-12-29T06:51:07;10.40;99.90
33739;DHT22;20063;51.730;11.110;2022-12-29T06:53:33;10.40;99.90
33739;DHT22;20063;51.730;11.110;2022-12-29T06:55:59;10.50;99.90
33739;DHT22;20063;51.730;11.110;2022-12-29T06:58:24;10.50;99.90
33739;DHT22;20063;51.730;11.110;2022-12-29T07:00:50;10.60;99.90
33739;DHT22;20063;51.730;11.110;2022-12-29T07:03:15;10.60;99.90
33739;DHT22;20063;51.730;11.110;2022-12-29T07:05:41;10.60;99.90
33739;DHT22;20063;51.730;11.110;2022-12-29T07:08:07;10.60;99.90
33739;DHT22;20063;51.730;11.110;2022-12-29T07:10:32;10.60;99.90
33739;DHT22;20063;51.730;11.110;2022-12-29T07:12:58;10.60;99.90
33739;DHT22;20063;51.730;11.110;2022-12-29T07:15:23;10.50;99.90
33739;DHT22;20063;51.730;11.110;2022-12-29T07:17:49;10.50;99.90
33739;DHT22;20063;51.730;11.110;2022-12-29T07:20:15;10.50;99.90
33739;DHT22;20063;51.730;11.110;2022-12-29T07:22:41;10.50;99.90
33739;DHT22;20063;51.730;11.110;2022-12-29T07:25:07;10.60;99.90
33739;DHT22;20063;51.730;11.110;2022-12-29T07:27:32;10.60;99.90
33739;DHT22;20063;51.730;11.110;2022-12-29T07:29:58;10.60;99.90
33739;DHT22;20063;51.730;11.110;2022-12-29T07:32:23;10.60;99.90
33739;DHT22;20063;51.730;11.110;2022-12-29T07:34:52;10.70;99.90
33739;DHT22;20063;51.730;11.110;2022-12-29T07:37:18;10.70;99.90
33739;DHT22;20063;51.730;11.110;2022-12-29T07:39:43;10.70;99.90
33739;DHT22;20063;51.730;11.110;2022-12-29T07:42:09;10.70;99.90
33739;DHT22;20063;51.730;11.110;2022-12-29T07:44:35;10.80;99.90
33739;DHT22;20063;51.730;11.110;2022-12-29T07:47:02;10.80;99.90
33739;DHT22;20063;51.730;11.110;2022-12-29T07:49:28;10.80;99.90
33739;DHT22;20063;51.730;11.110;2022-12-29T07:51:53;10.80;99.90
33739;DHT22;20063;51.730;11.110;2022-12-29T07:54:19;10.80;99.90
33739;DHT22;20063;51.730;11.110;2022-12-29T07:56:45;10.80;99.90
33739;DHT22;20063;51.730;11.110;2022-12-29T07:59:11;10.70;99.90
33739;DHT22;20063;51.730;11.110;2022-12-29T08:01:37;10.60;99.90
33739;DHT22;20063;51.730;11.110;2022-12-29T08:04:03;10.60;99.90
33739;DHT22;20063;51.730;11.110;2022-12-29T08:06:29;10.60;99.90
33739;DHT22;20063;51.730;11.110;2022-12-29T08:08:56;10.50;99.90
33739;DHT22;20063;51.730;11.110;2022-12-29T08:11:22;10.50;99.90
33739;DHT22;20063;51.730;11.110;2022-12-29T08:13:47;10.50;99.90
33739;DHT22;20063;51.730;11.110;2022-12-29T08:16:13;10.50;99.90
33739;DHT22;20063;51.730;11.110;2022-12-29T08:18:41;10.40;99.90
33739;DHT22;20063;51.730;11.110;2022-12-29T08:21:07;10.50;99.90
33739;DHT22;20063;51.730;11.110;2022-12-29T08:23:33;10.40;99.90
33739;DHT22;20063;51.730;11.110;2022-12-29T08:26:04;10.40;99.90
33739;DHT22;20063;51.730;11.110;2022-12-29T08:28:30;10.40;99.90
33739;DHT22;20063;51.730;11.110;2022-12-29T08:31:01;10.50;99.90
33739;DHT22;20063;51.730;11.110;2022-12-29T08:33:27;10.50;99.90
33739;DHT22;20063;51.730;11.110;2022-12-29T08:36:02;10.50;99.90
33739;DHT22;20063;51.730;11.110;2022-12-29T08:38:31;10.50;99.90
33739;DHT22;20063;51.730;11.110;2022-12-29T08:40:58;10.50;99.90
33739;DHT22;20063;51.730;11.110;2022-12-29T08:43:24;10.50;99.90
33739;DHT22;20063;51.730;11.110;2022-12-29T08:45:50;10.50;99.90
33739;DHT22;20063;51.730;11.110;2022-12-29T08:48:16;10.50;99.90
33739;DHT22;20063;51.730;11.110;2022-12-29T08:50:45;10.50;99.90
33739;DHT22;20063;51.730;11.110;2022-12-29T08:53:11;10.60;99.90
33739;DHT22;20063;51.730;11.110;2022-12-29T08:55:36;10.60;99.90
33739;DHT22;20063;51.730;11.110;2022-12-29T08:58:03;10.70;99.90
33739;DHT22;20063;51.730;11.110;2022-12-29T09:00:29;10.70;99.90
33739;DHT22;20063;51.730;11.110;2022-12-29T09:02:54;10.80;99.90
33739;DHT22;20063;51.730;11.110;2022-12-29T09:05:20;10.70;99.90
33739;DHT22;20063;51.730;11.110;2022-12-29T09:07:45;10.80;99.90
33739;DHT22;20063;51.730;11.110;2022-12-29T09:10:11;10.70;99.90
33739;DHT22;20063;51.730;11.110;2022-12-29T09:12:37;10.70;99.90
33739;DHT22;20063;51.730;11.110;2022-12-29T09:15:03;10.70;99.90
33739;DHT22;20063;51.730;11.110;2022-12-29T09:17:28;10.60;99.90
33739;DHT22;20063;51.730;11.110;2022-12-29T09:20:17;10.50;99.90
33739;DHT22;20063;51.730;11.110;2022-12-29T09:22:43;10.40;99.90
33739;DHT22;20063;51.730;11.110;2022-12-29T09:25:10;10.40;99.90
33739;DHT22;20063;51.730;11.110;2022-12-29T09:27:37;10.40;99.90
33739;DHT22;20063;51.730;11.110;2022-12-29T09:30:04;10.40;99.90
33739;DHT22;20063;51.730;11.110;2022-12-29T09:32:31;10.40;99.90
33739;DHT22;20063;51.730;11.110;2022-12-29T09:34:57;10.30;99.90
33739;DHT22;20063;51.730;11.110;2022-12-29T09:37:22;10.40;99.90
33739;DHT22;20063;51.730;11.110;2022-12-29T09:39:48;10.50;99.90
33739;DHT22;20063;51.730;11.110;2022-12-29T09:45:10;10.30;99.90
33739;DHT22;20063;51.730;11.110;2022-12-29T09:47:41;10.40;99.90
33739;DHT22;20063;51.730;11.110;2022-12-29T09:53:00;10.40;99.90
33739;DHT22;20063;51.730;11.110;2022-12-29T09:55:44;10.40;99.90
33739;DHT22;20063;51.730;11.110;2022-12-29T09:59:19;10.40;99.90
33739;DHT22;20063;51.730;11.110;2022-12-29T10:03:56;10.40;99.90
33739;DHT22;20063;51.730;11.110;2022-12-29T10:25:26;10.30;99.90
33739;DHT22;20063;51.730;11.110;2022-12-29T10:27:56;10.20;99.90
33739;DHT22;20063;51.730;11.110;2022-12-29T10:30:23;10.10;99.90
33739;DHT22;20063;51.730;11.110;2022-12-29T10:32:54;9.80;99.90
33739;DHT22;20063;51.730;11.110;2022-12-29T10:35:24;9.70;99.90
33739;DHT22;20063;51.730;11.110;2022-12-29T10:38:00;9.50;99.90
33739;DHT22;20063;51.730;11.110;2022-12-29T10:40:38;9.40;99.90
33739;DHT22;20063;51.730;11.110;2022-12-29T10:43:26;9.30;99.90
33739;DHT22;20063;51.730;11.110;2022-12-29T10:45:54;9.30;99.90
33739;DHT22;20063;51.730;11.110;2022-12-29T10:48:27;9.30;99.90
33739;DHT22;20063;51.730;11.110;2022-12-29T10:50:56;9.40;99.90
33739;DHT22;20063;51.730;11.110;2022-12-29T10:53:26;9.50;99.90
33739;DHT22;20063;51.730;11.110;2022-12-29T10:55:53;9.60;99.90
33739;DHT22;20063;51.730;11.110;2022-12-29T10:58:20;9.70;99.90
33739;DHT22;20063;51.730;11.110;2022-12-29T11:00:53;9.70;99.90
33739;DHT22;20063;51.730;11.110;2022-12-29T11:06:27;9.90;99.90
33739;DHT22;20063;51.730;11.110;2022-12-29T11:08:58;10.00;99.90
33739;DHT22;20063;51.730;11.110;2022-12-29T11:11:34;10.10;99.90
33739;DHT22;20063;51.730;11.110;2022-12-29T11:14:19;10.10;99.90
33739;DHT22;20063;51.730;11.110;2022-12-29T11:17:00;10.10;99.90
33739;DHT22;20063;51.730;11.110;2022-12-29T11:19:28;10.20;99.90
33739;DHT22;20063;51.730;11.110;2022-12-29T11:21:54;10.10;99.90
33739;DHT22;20063;51.730;11.110;2022-12-29T11:24:24;10.20;99.90
33739;DHT22;20063;51.730;11.110;2022-12-29T11:26:52;10.10;99.90
33739;DHT22;20063;51.730;11.110;2022-12-29T11:29:36;10.10;99.90
33739;DHT22;20063;51.730;11.110;2022-12-29T11:32:18;10.10;99.90
33739;DHT22;20063;51.730;11.110;2022-12-29T11:34:45;10.10;99.90
33739;DHT22;20063;51.730;11.110;2022-12-29T11:37:29;10.10;99.90
33739;DHT22;20063;51.730;11.110;2022-12-29T11:40:04;10.20;99.90
33739;DHT22;20063;51.730;11.110;2022-12-29T11:42:41;10.20;99.90
33739;DHT22;20063;51.730;11.110;2022-12-29T11:45:21;10.20;99.90
33739;DHT22;20063;51.730;11.110;2022-12-29T11:47:56;10.20;99.90
33739;DHT22;20063;51.730;11.110;2022-12-29T11:50:25;10.20;99.90
33739;DHT22;20063;51.730;11.110;2022-12-29T11:52:58;10.20;99.90
33739;DHT22;20063;51.730;11.110;2022-12-29T11:55:26;10.30;99.90
33739;DHT22;20063;51.730;11.110;2022-12-29T11:57:54;10.30;99.90
33739;DHT22;20063;51.730;11.110;2022-12-29T12:00:24;10.40;99.90
33739;DHT22;20063;51.730;11.110;2022-12-29T12:05:41;10.30;99.90
33739;DHT22;20063;51.730;11.110;2022-12-29T12:08:17;10.40;99.90
33739;DHT22;20063;51.730;11.110;2022-12-29T12:24:39;10.40;99.90
33739;DHT22;20063;51.730;11.110;2022-12-29T12:32:50;10.50;99.90
33739;DHT22;20063;51.730;11.110;2022-12-29T13:15:05;10.40;99.90
33739;DHT22;20063;51.730;11.110;2022-12-29T13:28:29;10.50;99.90
33739;DHT22;20063;51.730;11.110;2022-12-29T13:31:03;10.50;99.90
33739;DHT22;20063;51.730;11.110;2022-12-29T13:39:05;10.50;99.90
33739;DHT22;20063;51.730;11.110;2022-12-29T13:41:39;10.50;99.90
33739;DHT22;20063;51.730;11.110;2022-12-29T13:44:09;10.60;99.90
33739;DHT22;20063;51.730;11.110;2022-12-29T13:46:43;10.60;99.90
33739;DHT22;20063;51.730;11.110;2022-12-29T13:49:15;10.70;99.90
33739;DHT22;20063;51.730;11.110;2022-12-29T13:52:04;10.60;99.90
33739;DHT22;20063;51.730;11.110;2022-12-29T13:55:00;10.70;99.90
33739;DHT22;20063;51.730;11.110;2022-12-29T13:57:48;10.70;99.90
33739;DHT22;20063;51.730;11.110;2022-12-29T14:00:23;10.70;99.90
33739;DHT22;20063;51.730;11.110;2022-12-29T14:06:27;10.70;99.90
33739;DHT22;20063;51.730;11.110;2022-12-29T14:08:58;10.70;99.90
33739;DHT22;20063;51.730;11.110;2022-12-29T14:11:39;10.70;99.90
33739;DHT22;20063;51.730;11.110;2022-12-29T14:14:20;10.80;99.90
33739;DHT22;20063;51.730;11.110;2022-12-29T14:16:46;10.80;99.90
33739;DHT22;20063;51.730;11.110;2022-12-29T14:21:38;10.70;99.90
33739;DHT22;20063;51.730;11.110;2022-12-29T14:27:00;10.70;99.90
33739;DHT22;20063;51.730;11.110;2022-12-29T14:31:55;10.60;99.90
33739;DHT22;20063;51.730;11.110;2022-12-29T14:42:15;10.60;99.90
33739;DHT22;20063;51.730;11.110;2022-12-29T14:49:55;10.30;99.90
33739;DHT22;20063;51.730;11.110;2022-12-29T14:52:24;10.20;99.90
33739;DHT22;20063;51.730;11.110;2022-12-29T14:54:56;10.10;99.90
33739;DHT22;20063;51.730;11.110;2022-12-29T14:57:52;10.10;99.90
33739;DHT22;20063;51.730;11.110;2022-12-29T15:00:30;10.00;99.90
33739;DHT22;20063;51.730;11.110;2022-12-29T15:03:05;9.90;99.90
33739;DHT22;20063;51.730;11.110;2022-12-29T15:08:10;9.80;99.90
33739;DHT22;20063;51.730;11.110;2022-12-29T15:10:56;9.80;99.90
33739;DHT22;20063;51.730;11.110;2022-12-29T15:13:25;9.70;99.90
33739;DHT22;20063;51.730;11.110;2022-12-29T15:15:57;9.70;99.90
33739;DHT22;20063;51.730;11.110;2022-12-29T15:18:26;9.70;99.90
33739;DHT22;20063;51.730;11.110;2022-12-29T15:20:56;9.70;99.90
33739;DHT22;20063;51.730;11.110;2022-12-29T15:23:23;9.70;99.90
33739;DHT22;20063;51.730;11.110;2022-12-29T15:25:54;9.70;99.90
33739;DHT22;20063;51.730;11.110;2022-12-29T15:28:21;9.60;99.90
33739;DHT22;20063;51.730;11.110;2022-12-29T15:30:54;9.60;99.90
33739;DHT22;20063;51.730;11.110;2022-12-29T15:33:22;9.50;99.90
33739;DHT22;20063;51.730;11.110;2022-12-29T15:35:52;9.40;99.90
33739;DHT22;20063;51.730;11.110;2022-12-29T15:38:27;9.40;99.90
33739;DHT22;20063;51.730;11.110;2022-12-29T15:40:58;9.30;99.90
33739;DHT22;20063;51.730;11.110;2022-12-29T15:46:01;9.10;99.90
33739;DHT22;20063;51.730;11.110;2022-12-29T15:48:27;9.10;99.90
33739;DHT22;20063;51.730;11.110;2022-12-29T15:50:54;9.10;99.90
33739;DHT22;20063;51.730;11.110;2022-12-29T15:53:28;9.00;99.90
33739;DHT22;20063;51.730;11.110;2022-12-29T15:55:59;9.00;99.90
33739;DHT22;20063;51.730;11.110;2022-12-29T15:58:29;9.00;99.90
33739;DHT22;20063;51.730;11.110;2022-12-29T16:01:00;9.00;99.90
33739;DHT22;20063;51.730;11.110;2022-12-29T16:03:29;9.00;99.90
33739;DHT22;20063;51.730;11.110;2022-12-29T16:12:14;8.90;99.90
33739;DHT22;20063;51.730;11.110;2022-12-29T16:14:42;8.90;99.90
33739;DHT22;20063;51.730;11.110;2022-12-29T16:17:13;8.90;99.90
33739;DHT22;20063;51.730;11.110;2022-12-29T16:19:43;8.80;99.90
33739;DHT22;20063;51.730;11.110;2022-12-29T16:22:33;8.80;99.90
33739;DHT22;20063;51.730;11.110;2022-12-29T16:27:47;8.80;99.90
33739;DHT22;20063;51.730;11.110;2022-12-29T16:30:27;8.80;99.90
33739;DHT22;20063;51.730;11.110;2022-12-29T16:32:56;8.80;99.90
33739;DHT22;20063;51.730;11.110;2022-12-29T16:35:24;8.80;99.90
33739;DHT22;20063;51.730;11.110;2022-12-29T16:38:21;8.90;99.90
33739;DHT22;20063;51.730;11.110;2022-12-29T16:40:54;8.80;99.90
33739;DHT22;20063;51.730;11.110;2022-12-29T16:43:23;8.90;99.90
33739;DHT22;20063;51.730;11.110;2022-12-29T16:48:23;8.80;99.90
33739;DHT22;20063;51.730;11.110;2022-12-29T16:50:51;8.80;99.90
33739;DHT22;20063;51.730;11.110;2022-12-29T16:53:24;8.90;99.90
33739;DHT22;20063;51.730;11.110;2022-12-29T16:56:03;8.90;99.90
33739;DHT22;20063;51.730;11.110;2022-12-29T16:58:29;8.90;99.90
33739;DHT22;20063;51.730;11.110;2022-12-29T17:00:58;8.90;99.90
33739;DHT22;20063;51.730;11.110;2022-12-29T17:03:35;8.90;99.90
33739;DHT22;20063;51.730;11.110;2022-12-29T17:06:04;9.00;99.90
33739;DHT22;20063;51.730;11.110;2022-12-29T17:08:40;9.00;99.90
33739;DHT22;20063;51.730;11.110;2022-12-29T17:14:02;9.00;99.90
33739;DHT22;20063;51.730;11.110;2022-12-29T17:16:29;9.00;99.90
33739;DHT22;20063;51.730;11.110;2022-12-29T17:18:55;9.00;99.90
33739;DHT22;20063;51.730;11.110;2022-12-29T17:21:20;9.00;99.90
33739;DHT22;20063;51.730;11.110;2022-12-29T17:23:46;8.90;99.90
33739;DHT22;20063;51.730;11.110;2022-12-29T17:26:12;8.90;99.90
33739;DHT22;20063;51.730;11.110;2022-12-29T17:28:38;8.90;99.90
33739;DHT22;20063;51.730;11.110;2022-12-29T17:31:05;8.90;99.90
33739;DHT22;20063;51.730;11.110;2022-12-29T17:33:37;8.90;99.90
33739;DHT22;20063;51.730;11.110;2022-12-29T17:36:03;8.90;99.90
33739;DHT22;20063;51.730;11.110;2022-12-29T17:38:30;8.90;99.90
33739;DHT22;20063;51.730;11.110;2022-12-29T17:40:57;8.90;99.90
33739;DHT22;20063;51.730;11.110;2022-12-29T17:43:22;8.80;99.90
33739;DHT22;20063;51.730;11.110;2022-12-29T17:45:52;8.90;99.90
33739;DHT22;20063;51.730;11.110;2022-12-29T17:48:18;8.90;99.90
33739;DHT22;20063;51.730;11.110;2022-12-29T17:50:49;8.90;99.90
33739;DHT22;20063;51.730;11.110;2022-12-29T17:53:20;8.90;99.90
33739;DHT22;20063;51.730;11.110;2022-12-29T17:55:46;8.90;99.90
33739;DHT22;20063;51.730;11.110;2022-12-29T17:58:20;8.90;99.90
33739;DHT22;20063;51.730;11.110;2022-12-29T18:00:49;8.90;99.90
33739;DHT22;20063;51.730;11.110;2022-12-29T18:03:16;8.80;99.90
33739;DHT22;20063;51.730;11.110;2022-12-29T18:05:43;8.80;99.90
33739;DHT22;20063;51.730;11.110;2022-12-29T18:08:10;8.80;99.90
33739;DHT22;20063;51.730;11.110;2022-12-29T18:10:39;8.70;99.90
33739;DHT22;20063;51.730;11.110;2022-12-29T18:13:05;8.80;99.90
33739;DHT22;20063;51.730;11.110;2022-12-29T18:15:33;8.80;99.90
33739;DHT22;20063;51.730;11.110;2022-12-29T18:18:00;8.80;99.90
33739;DHT22;20063;51.730;11.110;2022-12-29T18:20:29;8.80;99.90
33739;DHT22;20063;51.730;11.110;2022-12-29T18:22:55;8.80;99.90
33739;DHT22;20063;51.730;11.110;2022-12-29T18:25:27;8.90;99.90
33739;DHT22;20063;51.730;11.110;2022-12-29T18:27:55;8.90;99.90
33739;DHT22;20063;51.730;11.110;2022-12-29T18:30:21;8.80;99.90
33739;DHT22;20063;51.730;11.110;2022-12-29T18:32:47;8.80;99.90
33739;DHT22;20063;51.730;11.110;2022-12-29T18:35:19;8.70;99.90
33739;DHT22;20063;51.730;11.110;2022-12-29T18:37:47;8.80;99.90
33739;DHT22;20063;51.730;11.110;2022-12-29T18:40:12;8.80;99.90
33739;DHT22;20063;51.730;11.110;2022-12-29T18:42:39;8.80;99.90
33739;DHT22;20063;51.730;11.110;2022-12-29T18:45:19;8.80;99.90
33739;DHT22;20063;51.730;11.110;2022-12-29T18:47:45;8.80;99.90
33739;DHT22;20063;51.730;11.110;2022-12-29T18:50:12;8.80;99.90